createdAt,value
2022-08-21T00:01:11.201Z,16.80
2022-08-21T00:03:43.402Z,16.90
2022-08-21T00:06:16.066Z,16.90
2022-08-21T00:08:47.878Z,16.80
2022-08-21T00:11:20.093Z,16.90
2022-08-21T00:13:51.856Z,16.90
2022-08-21T00:16:24.462Z,16.90
2022-08-21T00:18:56.270Z,16.90
2022-08-21T00:21:29.089Z,16.90
2022-08-21T00:24:01.196Z,16.80
2022-08-21T00:26:34.155Z,16.70
2022-08-21T00:29:06.405Z,16.70
2022-08-21T00:31:38.482Z,16.70
2022-08-21T00:34:12.103Z,16.70
2022-08-21T00:36:44.309Z,16.60
2022-08-21T00:39:16.148Z,16.60
2022-08-21T00:41:48.756Z,16.50
2022-08-21T00:44:20.518Z,16.50
2022-08-21T00:46:53.965Z,16.50
2022-08-21T00:49:26.206Z,16.40
2022-08-21T00:52:01.872Z,16.30
2022-08-21T00:54:35.080Z,16.30
2022-08-21T00:57:13.876Z,16.30
2022-08-21T00:59:52.277Z,16.30
2022-08-21T01:02:24.613Z,16.30
2022-08-21T01:04:57.126Z,16.30
2022-08-21T01:07:28.896Z,16.30
2022-08-21T01:10:01.554Z,16.30
2022-08-21T01:12:36.073Z,16.20
2022-08-21T01:15:10.068Z,16.20
2022-08-21T01:17:42.905Z,16.40
2022-08-21T01:20:15.412Z,16.20
2022-08-21T01:22:48.187Z,16.30
2022-08-21T01:25:23.325Z,16.10
2022-08-21T01:27:55.974Z,16.20
2022-08-21T01:30:29.344Z,16.30
2022-08-21T01:33:02.037Z,16.10
2022-08-21T01:35:33.862Z,16.20
2022-08-21T01:38:06.707Z,16.30
2022-08-21T01:40:38.424Z,16.20
2022-08-21T01:43:11.222Z,16.10
2022-08-21T01:45:43.487Z,16.20
2022-08-21T01:48:17.056Z,16.20
2022-08-21T01:50:49.536Z,16.20
2022-08-21T01:53:33.452Z,16.20
2022-08-21T01:56:12.602Z,16.20
2022-08-21T01:58:48.072Z,16.20
2022-08-21T02:01:19.939Z,16.20
2022-08-21T02:03:52.660Z,16.20
2022-08-21T02:06:24.407Z,16.30
2022-08-21T02:08:56.975Z,16.20
2022-08-21T02:11:28.917Z,16.20
2022-08-21T02:14:01.130Z,16.20
2022-08-21T02:16:33.049Z,16.20
2022-08-21T02:19:07.151Z,16.10
2022-08-21T02:21:39.134Z,16.10
2022-08-21T02:24:13.190Z,16.00
2022-08-21T02:26:45.035Z,16.00
2022-08-21T02:29:17.659Z,15.90
2022-08-21T02:31:49.530Z,15.90
2022-08-21T02:34:22.866Z,15.90
2022-08-21T02:37:01.282Z,15.80
2022-08-21T02:39:34.098Z,15.70
2022-08-21T02:42:05.857Z,15.80
2022-08-21T02:44:38.441Z,15.70
2022-08-21T02:47:10.303Z,15.80
2022-08-21T02:49:43.101Z,15.70
2022-08-21T02:52:15.645Z,15.60
2022-08-21T02:54:48.212Z,15.60
2022-08-21T02:57:20.034Z,15.60
2022-08-21T02:59:52.661Z,15.50
2022-08-21T03:02:26.677Z,15.50
2022-08-21T03:04:59.385Z,15.50
2022-08-21T03:07:31.548Z,15.60
2022-08-21T03:10:05.388Z,15.50
2022-08-21T03:12:37.565Z,15.60
2022-08-21T03:15:13.182Z,15.70
2022-08-21T03:17:46.845Z,15.60
2022-08-21T03:20:21.041Z,15.70
2022-08-21T03:22:54.764Z,15.70
2022-08-21T03:25:40.021Z,15.70
2022-08-21T03:28:16.883Z,15.80
2022-08-21T03:30:52.586Z,15.80
2022-08-21T03:33:25.601Z,15.80
2022-08-21T03:36:04.469Z,15.80
2022-08-21T03:38:38.680Z,15.80
2022-08-21T03:41:10.538Z,15.70
2022-08-21T03:43:43.133Z,15.70
2022-08-21T03:46:15.505Z,15.70
2022-08-21T03:48:48.126Z,15.60
2022-08-21T03:51:21.070Z,15.70
2022-08-21T03:53:53.109Z,15.80
2022-08-21T03:56:25.750Z,15.80
2022-08-21T03:58:57.688Z,15.70
2022-08-21T04:01:30.492Z,15.70
2022-08-21T04:04:02.451Z,15.70
2022-08-21T04:06:37.849Z,15.70
2022-08-21T04:09:09.847Z,15.70
2022-08-21T04:11:42.597Z,15.70
2022-08-21T04:14:15.432Z,15.60
2022-08-21T04:16:48.078Z,15.60
2022-08-21T04:19:19.923Z,15.60
2022-08-21T04:21:52.696Z,15.60
2022-08-21T04:24:24.440Z,15.60
2022-08-21T04:26:56.668Z,15.50
2022-08-21T04:29:28.424Z,15.50
2022-08-21T04:32:01.037Z,15.50
2022-08-21T04:34:32.816Z,15.60
2022-08-21T04:37:05.756Z,15.50
2022-08-21T04:39:37.493Z,15.50
2022-08-21T04:42:10.808Z,15.40
2022-08-21T04:44:43.060Z,15.40
2022-08-21T04:47:14.793Z,15.30
2022-08-21T04:49:47.560Z,15.30
2022-08-21T04:52:24.449Z,15.30
2022-08-21T04:54:56.623Z,15.40
2022-08-21T04:57:47.381Z,15.40
2022-08-21T05:00:23.178Z,15.50
2022-08-21T05:03:00.127Z,15.60
2022-08-21T05:05:33.627Z,15.60
2022-08-21T05:08:08.563Z,15.70
2022-08-21T05:10:41.016Z,15.80
2022-08-21T05:13:14.079Z,15.80
2022-08-21T05:15:46.724Z,16.00
2022-08-21T05:18:18.524Z,16.00
2022-08-21T05:20:52.024Z,16.00
2022-08-21T05:23:24.328Z,16.10
2022-08-21T05:25:57.288Z,16.20
2022-08-21T05:28:29.359Z,16.40
2022-08-21T05:31:01.960Z,16.50
2022-08-21T05:33:33.745Z,16.70
2022-08-21T05:36:08.569Z,16.70
2022-08-21T05:38:41.972Z,16.80
2022-08-21T05:41:14.233Z,16.80
2022-08-21T05:43:45.956Z,16.90
2022-08-21T05:46:18.599Z,16.90
2022-08-21T05:48:50.945Z,17.10
2022-08-21T05:51:22.746Z,17.00
2022-08-21T05:53:55.503Z,17.00
2022-08-21T05:56:27.389Z,17.10
2022-08-21T05:59:00.059Z,17.10
2022-08-21T06:01:31.884Z,17.10
2022-08-21T06:04:04.863Z,17.10
2022-08-21T06:06:36.613Z,17.00
2022-08-21T06:09:09.360Z,17.10
2022-08-21T06:11:41.398Z,17.00
2022-08-21T06:14:18.037Z,17.00
2022-08-21T06:16:50.292Z,17.20
2022-08-21T06:19:22.123Z,17.30
2022-08-21T06:21:54.738Z,17.40
2022-08-21T06:24:27.048Z,17.60
2022-08-21T06:27:04.688Z,17.70
2022-08-21T06:29:44.364Z,17.90
2022-08-21T06:32:16.923Z,18.00
2022-08-21T06:34:50.443Z,18.30
2022-08-21T06:37:23.137Z,18.60
2022-08-21T06:39:56.953Z,18.40
2022-08-21T06:42:30.965Z,18.30
2022-08-21T06:45:02.861Z,18.10
2022-08-21T06:47:35.549Z,18.20
2022-08-21T06:50:08.632Z,18.40
2022-08-21T06:52:41.567Z,18.30
2022-08-21T06:55:13.930Z,18.10
2022-08-21T06:57:54.647Z,18.50
2022-08-21T07:00:27.747Z,18.00
2022-08-21T07:03:00.017Z,18.00
2022-08-21T07:05:32.955Z,18.30
2022-08-21T07:08:04.649Z,18.60
2022-08-21T07:10:36.836Z,19.00
2022-08-21T07:13:08.685Z,19.30
2022-08-21T07:15:41.493Z,19.70
2022-08-21T07:18:14.055Z,19.70
2022-08-21T07:20:47.411Z,19.90
2022-08-21T07:23:33.277Z,20.00
2022-08-21T07:26:06.457Z,20.20
2022-08-21T07:28:39.160Z,20.10
2022-08-21T07:31:14.616Z,20.40
2022-08-21T07:33:47.899Z,20.50
2022-08-21T07:36:20.277Z,20.80
2022-08-21T07:38:53.114Z,21.00
2022-08-21T07:41:30.022Z,21.10
2022-08-21T07:44:01.893Z,21.40
2022-08-21T07:46:34.987Z,21.90
2022-08-21T07:49:06.856Z,22.00
2022-08-21T07:51:40.253Z,23.40
2022-08-21T07:54:12.112Z,24.10
2022-08-21T07:56:49.750Z,23.50
2022-08-21T07:59:21.705Z,24.10
2022-08-21T08:01:54.349Z,24.60
2022-08-21T08:04:26.766Z,24.60
2022-08-21T08:06:59.365Z,25.40
2022-08-21T08:09:31.688Z,25.50
2022-08-21T08:12:05.524Z,26.00
2022-08-21T08:14:37.616Z,25.50
2022-08-21T08:17:10.216Z,26.50
2022-08-21T08:19:41.953Z,25.80
2022-08-21T08:22:20.714Z,25.00
2022-08-21T08:24:56.036Z,25.60
2022-08-21T08:27:28.959Z,25.30
2022-08-21T08:30:00.779Z,25.40
2022-08-21T08:32:33.450Z,25.80
2022-08-21T08:35:06.336Z,26.50
2022-08-21T08:37:41.968Z,26.00
2022-08-21T08:40:34.773Z,27.60
2022-08-21T08:43:07.206Z,27.00
2022-08-21T08:45:42.000Z,27.00
2022-08-21T08:48:22.225Z,26.80
2022-08-21T08:50:58.595Z,27.20
2022-08-21T08:53:36.300Z,28.90
2022-08-21T08:56:08.331Z,26.40
2022-08-21T08:58:46.159Z,28.20
2022-08-21T09:01:20.821Z,28.90
2022-08-21T09:03:53.738Z,27.30
2022-08-21T09:06:51.605Z,28.60
2022-08-21T09:09:29.248Z,28.00
2022-08-21T09:12:13.761Z,28.90
2022-08-21T09:14:52.509Z,28.10
2022-08-21T09:17:45.859Z,28.60
2022-08-21T09:20:20.597Z,27.40
2022-08-21T09:23:22.333Z,27.60
2022-08-21T09:26:05.980Z,27.20
2022-08-21T09:28:38.822Z,28.00
2022-08-21T09:31:31.604Z,28.20
2022-08-21T09:34:14.625Z,27.90
2022-08-21T09:36:50.372Z,28.30
2022-08-21T09:39:40.266Z,27.90
2022-08-21T09:42:29.933Z,28.70
2022-08-21T09:45:11.253Z,29.40
2022-08-21T09:47:45.362Z,29.40
2022-08-21T09:50:27.711Z,28.20
2022-08-21T09:53:04.651Z,27.70
2022-08-21T09:56:07.316Z,28.30
2022-08-21T09:58:43.101Z,28.70
2022-08-21T10:01:18.611Z,29.70
2022-08-21T10:04:09.633Z,30.20
2022-08-21T10:06:41.721Z,28.70
2022-08-21T10:09:21.336Z,28.90
2022-08-21T10:12:24.205Z,29.40
2022-08-21T10:15:36.728Z,28.60
2022-08-21T10:18:28.279Z,28.00
2022-08-21T10:21:04.297Z,27.70
2022-08-21T10:23:52.699Z,27.90
2022-08-21T10:27:07.113Z,28.40
2022-08-21T10:30:07.012Z,28.00
2022-08-21T10:33:05.248Z,28.70
2022-08-21T10:35:49.997Z,29.20
2022-08-21T10:42:28.320Z,28.90
2022-08-21T10:45:14.640Z,29.00
2022-08-21T10:47:58.052Z,29.10
2022-08-21T10:50:40.460Z,28.50
2022-08-21T10:53:31.344Z,28.80
2022-08-21T10:56:23.639Z,28.30
2022-08-21T10:59:06.577Z,28.60
2022-08-21T11:01:50.478Z,28.90
2022-08-21T11:04:50.002Z,29.50
2022-08-21T11:07:34.433Z,30.20
2022-08-21T11:10:19.867Z,29.20
2022-08-21T11:13:04.581Z,28.40
2022-08-21T11:15:45.308Z,29.10
2022-08-21T11:18:33.494Z,30.10
2022-08-21T11:21:21.043Z,30.30
2022-08-21T11:24:04.767Z,30.10
2022-08-21T11:26:45.683Z,30.30
2022-08-21T11:29:30.268Z,30.80
2022-08-21T11:32:23.641Z,31.30
2022-08-21T11:35:03.776Z,30.30
2022-08-21T11:37:57.998Z,29.10
2022-08-21T11:41:01.901Z,29.50
2022-08-21T11:43:50.271Z,30.00
2022-08-21T11:47:11.155Z,30.50
2022-08-21T11:50:03.574Z,29.50
2022-08-21T11:52:41.947Z,30.30
2022-08-21T11:55:23.981Z,29.70
2022-08-21T11:58:00.267Z,29.30
2022-08-21T12:00:34.413Z,29.00
2022-08-21T12:03:12.370Z,28.80
2022-08-21T12:05:54.809Z,28.90
2022-08-21T12:08:37.016Z,28.40
2022-08-21T12:11:17.899Z,28.20
2022-08-21T12:14:01.542Z,27.20
2022-08-21T12:16:37.108Z,27.10
2022-08-21T12:19:15.405Z,26.80
2022-08-21T12:22:06.506Z,27.10
2022-08-21T12:24:42.953Z,27.80
2022-08-21T12:27:18.686Z,28.60
2022-08-21T12:29:54.998Z,28.80
2022-08-21T12:32:31.035Z,29.00
2022-08-21T12:35:15.612Z,28.50
2022-08-21T12:38:00.306Z,28.70
2022-08-21T12:40:42.993Z,29.40
2022-08-21T12:43:43.278Z,29.80
2022-08-21T12:46:22.099Z,29.60
2022-08-21T12:49:01.075Z,29.50
2022-08-21T12:52:07.247Z,29.40
2022-08-21T12:54:45.572Z,29.00
2022-08-21T12:57:25.788Z,29.40
2022-08-21T13:00:00.217Z,29.40
2022-08-21T13:02:38.568Z,29.90
2022-08-21T13:05:27.910Z,29.90
2022-08-21T13:08:05.761Z,29.70
2022-08-21T13:10:39.665Z,28.80
2022-08-21T13:13:25.017Z,28.60
2022-08-21T13:16:07.017Z,29.40
2022-08-21T13:18:58.910Z,28.50
2022-08-21T13:21:41.710Z,28.70
2022-08-21T13:24:43.602Z,28.30
2022-08-21T13:27:27.819Z,28.90
2022-08-21T13:30:26.504Z,29.40
2022-08-21T13:33:12.306Z,28.70
2022-08-21T13:35:56.890Z,28.80
2022-08-21T13:38:36.571Z,29.00
2022-08-21T13:41:11.476Z,29.20
2022-08-21T13:43:51.404Z,29.50
2022-08-21T13:46:25.369Z,29.40
2022-08-21T13:48:59.628Z,29.60
2022-08-21T13:51:33.568Z,29.80
2022-08-21T13:54:37.891Z,29.70
2022-08-21T13:57:25.189Z,29.40
2022-08-21T14:00:26.265Z,28.70
2022-08-21T14:03:06.259Z,28.70
2022-08-21T14:05:45.878Z,29.30
2022-08-21T14:08:30.699Z,29.10
2022-08-21T14:11:06.479Z,29.00
2022-08-21T14:13:41.513Z,29.00
2022-08-21T14:16:16.892Z,28.80
2022-08-21T14:19:08.496Z,28.20
2022-08-21T14:21:44.595Z,28.00
2022-08-21T14:24:23.368Z,28.50
2022-08-21T14:27:07.634Z,28.50
2022-08-21T14:29:43.864Z,28.60
2022-08-21T14:32:21.640Z,28.60
2022-08-21T14:34:59.314Z,29.10
2022-08-21T14:37:31.293Z,29.10
2022-08-21T14:40:05.479Z,28.90
2022-08-21T14:42:39.677Z,29.20
2022-08-21T14:45:17.648Z,28.80
2022-08-21T14:47:54.235Z,29.50
2022-08-21T14:50:28.108Z,29.40
2022-08-21T14:53:00.492Z,29.10
2022-08-21T14:55:57.505Z,28.90
2022-08-21T14:58:30.106Z,29.30
2022-08-21T15:01:05.455Z,29.20
2022-08-21T15:03:39.994Z,29.00
2022-08-21T15:06:12.029Z,28.70
2022-08-21T15:08:44.999Z,28.80
2022-08-21T15:11:42.399Z,28.70
2022-08-21T15:14:20.911Z,28.50
2022-08-21T15:16:54.544Z,28.90
2022-08-21T15:19:27.226Z,28.90
2022-08-21T15:21:59.381Z,28.40
2022-08-21T15:24:32.176Z,28.30
2022-08-21T15:27:07.203Z,28.20
2022-08-21T15:29:39.545Z,28.10
2022-08-21T15:32:23.935Z,29.20
2022-08-21T15:34:58.250Z,28.40
2022-08-21T15:37:30.971Z,28.90
2022-08-21T15:40:05.585Z,28.20
2022-08-21T15:42:40.169Z,28.10
2022-08-21T15:45:14.239Z,29.40
2022-08-21T15:47:47.430Z,28.60
2022-08-21T15:50:21.181Z,28.70
2022-08-21T15:52:54.090Z,28.60
2022-08-21T15:55:27.402Z,28.40
2022-08-21T15:58:02.856Z,29.40
2022-08-21T16:00:38.338Z,28.50
2022-08-21T16:03:17.582Z,30.00
2022-08-21T16:05:51.593Z,28.70
2022-08-21T16:08:24.567Z,28.30
2022-08-21T16:10:57.377Z,28.10
2022-08-21T16:13:40.433Z,28.10
2022-08-21T16:16:17.121Z,27.90
2022-08-21T16:18:50.655Z,27.90
2022-08-21T16:21:25.494Z,28.00
2022-08-21T16:23:57.275Z,28.00
2022-08-21T16:26:31.022Z,28.00
2022-08-21T16:29:05.148Z,28.00
2022-08-21T16:31:38.066Z,28.00
2022-08-21T16:34:12.248Z,28.00
2022-08-21T16:36:48.415Z,27.80
2022-08-21T16:39:20.896Z,27.80
2022-08-21T16:41:54.384Z,27.70
2022-08-21T16:44:26.794Z,27.60
2022-08-21T16:47:02.936Z,27.60
2022-08-21T16:49:35.608Z,27.40
2022-08-21T16:52:08.383Z,27.40
2022-08-21T16:54:43.834Z,27.30
2022-08-21T16:57:15.772Z,27.60
2022-08-21T16:59:48.561Z,27.50
2022-08-21T17:02:38.976Z,27.50
2022-08-21T17:05:14.143Z,27.60
2022-08-21T17:07:47.046Z,27.40
2022-08-21T17:10:19.525Z,27.40
2022-08-21T17:12:56.232Z,27.30
2022-08-21T17:15:33.868Z,27.20
2022-08-21T17:18:08.308Z,27.20
2022-08-21T17:20:41.353Z,27.00
2022-08-21T17:23:15.422Z,27.00
2022-08-21T17:25:50.919Z,26.80
2022-08-21T17:28:26.994Z,26.90
2022-08-21T17:31:02.209Z,26.80
2022-08-21T17:33:51.364Z,26.90
2022-08-21T17:36:28.441Z,26.80
2022-08-21T17:39:01.137Z,26.80
2022-08-21T17:41:34.402Z,26.80
2022-08-21T17:44:10.172Z,26.70
2022-08-21T17:46:43.184Z,26.60
2022-08-21T17:49:15.931Z,26.70
2022-08-21T17:51:49.944Z,26.70
2022-08-21T17:54:21.792Z,26.60
2022-08-21T17:56:56.274Z,26.50
2022-08-21T17:59:28.509Z,26.40
2022-08-21T18:02:06.180Z,26.40
2022-08-21T18:04:43.110Z,26.20
2022-08-21T18:07:32.379Z,26.10
2022-08-21T18:10:10.826Z,26.30
2022-08-21T18:12:45.725Z,26.00
2022-08-21T18:15:19.060Z,25.90
2022-08-21T18:17:52.248Z,26.40
2022-08-21T18:20:24.687Z,25.50
2022-08-21T18:22:57.569Z,25.40
2022-08-21T18:25:30.988Z,25.20
2022-08-21T18:28:07.158Z,25.10
2022-08-21T18:30:42.108Z,25.00
2022-08-21T18:33:14.856Z,25.00
2022-08-21T18:35:47.695Z,24.90
2022-08-21T18:38:21.606Z,24.80
2022-08-21T18:40:56.280Z,24.70
2022-08-21T18:43:28.219Z,24.60
2022-08-21T18:46:02.199Z,24.60
2022-08-21T18:48:35.368Z,24.70
2022-08-21T18:51:08.331Z,24.60
2022-08-21T18:53:40.290Z,24.60
2022-08-21T18:56:15.108Z,24.40
2022-08-21T18:58:48.080Z,24.20
2022-08-21T19:01:19.942Z,24.10
2022-08-21T19:03:52.781Z,23.90
2022-08-21T19:06:25.175Z,23.80
2022-08-21T19:08:58.165Z,23.70
2022-08-21T19:11:32.841Z,23.60
2022-08-21T19:14:07.471Z,23.50
2022-08-21T19:16:50.175Z,23.60
2022-08-21T19:19:22.265Z,23.50
2022-08-21T19:21:54.885Z,23.40
2022-08-21T19:24:29.408Z,23.30
2022-08-21T19:27:01.696Z,23.20
2022-08-21T19:29:34.862Z,23.00
2022-08-21T19:32:08.652Z,22.90
2022-08-21T19:34:42.555Z,22.70
2022-08-21T19:37:16.719Z,22.60
2022-08-21T19:42:43.042Z,22.50
2022-08-21T19:45:14.905Z,22.50
2022-08-21T19:47:51.072Z,22.40
2022-08-21T19:50:22.912Z,22.30
2022-08-21T19:52:55.435Z,22.30
2022-08-21T19:55:27.271Z,22.20
2022-08-21T19:58:00.359Z,22.40
2022-08-21T20:00:33.237Z,22.60
2022-08-21T20:03:05.715Z,22.60
2022-08-21T20:05:41.148Z,23.30
2022-08-21T20:11:11.253Z,22.50
2022-08-21T20:13:44.594Z,22.50
2022-08-21T20:16:17.230Z,23.10
2022-08-21T20:18:49.512Z,23.50
2022-08-21T20:21:22.121Z,23.80
2022-08-21T20:23:55.440Z,22.50
2022-08-21T20:26:28.075Z,22.30
2022-08-21T20:29:00.841Z,22.30
2022-08-21T20:31:33.189Z,21.90
2022-08-21T20:34:06.770Z,22.10
2022-08-21T20:36:39.414Z,22.10
2022-08-21T20:39:15.440Z,22.00
2022-08-21T20:41:49.657Z,22.90
2022-08-21T20:44:22.078Z,21.80
2022-08-21T20:47:01.393Z,21.80
2022-08-21T20:49:59.578Z,21.60
2022-08-21T20:52:37.357Z,21.60
2022-08-21T20:55:17.985Z,21.80
2022-08-21T20:58:07.093Z,21.80
2022-08-21T21:00:43.725Z,22.00
2022-08-21T21:03:30.365Z,22.60
2022-08-21T21:06:10.942Z,22.00
2022-08-21T21:09:00.005Z,21.90
2022-08-21T21:11:44.068Z,21.50
2022-08-21T21:14:23.033Z,21.60
2022-08-21T21:17:04.494Z,22.40
2022-08-21T21:19:46.254Z,21.40
2022-08-21T21:22:25.858Z,21.30
2022-08-21T21:25:27.177Z,21.30
2022-08-21T21:28:23.556Z,21.40
2022-08-21T21:30:57.866Z,21.40
2022-08-21T21:33:30.752Z,21.60
2022-08-21T21:36:16.705Z,21.50
2022-08-21T21:39:14.686Z,21.50
2022-08-21T21:41:50.154Z,21.10
2022-08-21T21:44:51.789Z,21.40
2022-08-21T21:47:31.103Z,21.20
2022-08-21T21:53:42.080Z,21.20
2022-08-21T21:56:33.150Z,21.40
2022-08-21T21:59:43.592Z,21.00
2022-08-21T22:02:33.470Z,21.30
2022-08-21T22:05:15.958Z,21.50
2022-08-21T22:07:58.368Z,21.30
2022-08-21T22:10:48.792Z,21.20
2022-08-21T22:13:38.972Z,21.10
2022-08-21T22:16:11.922Z,21.00
2022-08-21T22:18:54.778Z,21.00
2022-08-21T22:21:34.666Z,21.00
2022-08-21T22:24:14.545Z,20.90
2022-08-21T22:26:51.483Z,20.90
2022-08-21T22:29:24.201Z,20.90
2022-08-21T22:32:07.126Z,21.10
2022-08-21T22:34:40.484Z,21.40
2022-08-21T22:37:14.909Z,21.60
2022-08-21T22:39:54.472Z,21.20
2022-08-21T22:42:27.945Z,21.10
2022-08-21T22:45:02.808Z,20.80
2022-08-21T22:50:40.002Z,20.70
2022-08-21T22:53:24.261Z,20.90
2022-08-21T22:55:59.180Z,20.90
2022-08-21T22:58:35.759Z,20.90
2022-08-21T23:01:20.180Z,21.20
2022-08-21T23:03:58.649Z,21.10
2022-08-21T23:06:46.544Z,21.10
2022-08-21T23:09:35.765Z,20.90
2022-08-21T23:12:33.038Z,20.80
2022-08-21T23:15:11.336Z,20.50
2022-08-21T23:18:13.952Z,20.30
2022-08-21T23:21:06.508Z,20.40
2022-08-21T23:23:51.797Z,20.50
2022-08-21T23:26:39.365Z,20.80
2022-08-21T23:29:40.166Z,20.70
2022-08-21T23:32:40.792Z,20.90
2022-08-21T23:35:51.209Z,20.80
2022-08-21T23:38:58.299Z,20.60
2022-08-21T23:41:45.662Z,20.80
2022-08-21T23:44:38.288Z,20.80
2022-08-21T23:47:32.264Z,20.70
2022-08-21T23:50:17.002Z,20.80
2022-08-21T23:53:26.224Z,20.70
2022-08-21T23:56:20.198Z,20.50
2022-08-21T23:59:13.787Z,20.90
